sensor_id;sensor_type;location;lat;lon;timestamp;temperature;humidity
21115;DHT22;10715;48.546;9.896;2023-02-24T00:01:59;5.70;99.90
21115;DHT22;10715;48.546;9.896;2023-02-24T00:04:31;5.70;99.90
21115;DHT22;10715;48.546;9.896;2023-02-24T00:06:58;5.70;99.90
21115;DHT22;10715;48.546;9.896;2023-02-24T00:09:25;5.70;99.90
21115;DHT22;10715;48.546;9.896;2023-02-24T00:12:04;5.70;99.90
21115;DHT22;10715;48.546;9.896;2023-02-24T00:14:33;5.70;99.90
21115;DHT22;10715;48.546;9.896;2023-02-24T00:16:59;5.70;99.90
21115;DHT22;10715;48.546;9.896;2023-02-24T00:19:28;5.60;99.90
21115;DHT22;10715;48.546;9.896;2023-02-24T00:21:57;5.60;99.90
21115;DHT22;10715;48.546;9.896;2023-02-24T00:24:24;5.60;99.90
21115;DHT22;10715;48.546;9.896;2023-02-24T00:26:55;5.60;99.90
21115;DHT22;10715;48.546;9.896;2023-02-24T00:29:22;5.60;99.90
21115;DHT22;10715;48.546;9.896;2023-02-24T00:31:56;5.60;99.90
21115;DHT22;10715;48.546;9.896;2023-02-24T00:34:27;5.60;99.90
21115;DHT22;10715;48.546;9.896;2023-02-24T00:36:53;5.60;99.90
21115;DHT22;10715;48.546;9.896;2023-02-24T00:39:19;5.50;99.90
21115;DHT22;10715;48.546;9.896;2023-02-24T00:41:52;5.50;99.90
21115;DHT22;10715;48.546;9.896;2023-02-24T00:44:22;5.50;99.90
21115;DHT22;10715;48.546;9.896;2023-02-24T00:46:48;5.50;99.90
21115;DHT22;10715;48.546;9.896;2023-02-24T00:49:17;5.50;99.90
21115;DHT22;10715;48.546;9.896;2023-02-24T00:51:46;5.50;99.90
21115;DHT22;10715;48.546;9.896;2023-02-24T00:54:13;5.50;99.90
21115;DHT22;10715;48.546;9.896;2023-02-24T00:56:45;5.50;99.90
21115;DHT22;10715;48.546;9.896;2023-02-24T00:59:13;5.50;99.90
21115;DHT22;10715;48.546;9.896;2023-02-24T01:01:39;5.50;99.90
21115;DHT22;10715;48.546;9.896;2023-02-24T01:04:06;5.50;99.90
21115;DHT22;10715;48.546;9.896;2023-02-24T01:06:38;5.50;99.90
21115;DHT22;10715;48.546;9.896;2023-02-24T01:09:04;5.50;99.90
21115;DHT22;10715;48.546;9.896;2023-02-24T01:11:34;5.50;99.90
21115;DHT22;10715;48.546;9.896;2023-02-24T01:14:21;5.50;99.90
21115;DHT22;10715;48.546;9.896;2023-02-24T01:16:48;5.50;99.90
21115;DHT22;10715;48.546;9.896;2023-02-24T01:19:18;5.50;99.90
21115;DHT22;10715;48.546;9.896;2023-02-24T01:21:44;5.40;99.90
21115;DHT22;10715;48.546;9.896;2023-02-24T01:24:11;5.50;99.90
21115;DHT22;10715;48.546;9.896;2023-02-24T01:26:37;5.50;99.90
21115;DHT22;10715;48.546;9.896;2023-02-24T01:29:03;5.50;99.90
21115;DHT22;10715;48.546;9.896;2023-02-24T01:31:29;5.50;99.90
21115;DHT22;10715;48.546;9.896;2023-02-24T01:33:55;5.40;99.90
21115;DHT22;10715;48.546;9.896;2023-02-24T01:36:24;5.40;99.90
21115;DHT22;10715;48.546;9.896;2023-02-24T01:38:50;5.40;99.90
21115;DHT22;10715;48.546;9.896;2023-02-24T01:41:19;5.40;99.90
21115;DHT22;10715;48.546;9.896;2023-02-24T01:44:00;5.40;99.90
21115;DHT22;10715;48.546;9.896;2023-02-24T01:46:29;5.40;99.90
21115;DHT22;10715;48.546;9.896;2023-02-24T01:49:02;5.40;99.90
21115;DHT22;10715;48.546;9.896;2023-02-24T01:51:35;5.40;99.90
21115;DHT22;10715;48.546;9.896;2023-02-24T01:54:02;5.40;99.90
21115;DHT22;10715;48.546;9.896;2023-02-24T01:56:31;5.40;99.90
21115;DHT22;10715;48.546;9.896;2023-02-24T01:58:58;5.40;99.90
21115;DHT22;10715;48.546;9.896;2023-02-24T02:01:25;5.40;99.90
21115;DHT22;10715;48.546;9.896;2023-02-24T02:03:56;5.40;99.90
21115;DHT22;10715;48.546;9.896;2023-02-24T02:06:25;5.40;99.90
21115;DHT22;10715;48.546;9.896;2023-02-24T02:08:51;5.40;99.90
21115;DHT22;10715;48.546;9.896;2023-02-24T02:11:17;5.40;99.90
21115;DHT22;10715;48.546;9.896;2023-02-24T02:13:47;5.40;99.90
21115;DHT22;10715;48.546;9.896;2023-02-24T02:25:02;5.30;99.90
21115;DHT22;10715;48.546;9.896;2023-02-24T02:30:34;5.30;99.90
21115;DHT22;10715;48.546;9.896;2023-02-24T02:41:51;5.20;99.90
21115;DHT22;10715;48.546;9.896;2023-02-24T02:44:37;5.20;99.90
21115;DHT22;10715;48.546;9.896;2023-02-24T02:47:57;5.20;99.90
21115;DHT22;10715;48.546;9.896;2023-02-24T02:52:46;5.20;99.90
21115;DHT22;10715;48.546;9.896;2023-02-24T02:55:34;5.10;99.90
21115;DHT22;10715;48.546;9.896;2023-02-24T02:58:05;5.10;99.90
21115;DHT22;10715;48.546;9.896;2023-02-24T03:00:37;5.10;99.90
21115;DHT22;10715;48.546;9.896;2023-02-24T03:03:12;5.10;99.90
21115;DHT22;10715;48.546;9.896;2023-02-24T03:05:46;5.10;99.90
21115;DHT22;10715;48.546;9.896;2023-02-24T03:08:23;5.10;99.90
21115;DHT22;10715;48.546;9.896;2023-02-24T03:10:51;5.00;99.90
21115;DHT22;10715;48.546;9.896;2023-02-24T03:13:21;5.00;99.90
21115;DHT22;10715;48.546;9.896;2023-02-24T03:15:53;5.00;99.90
21115;DHT22;10715;48.546;9.896;2023-02-24T03:18:30;5.00;99.90
21115;DHT22;10715;48.546;9.896;2023-02-24T03:21:36;5.00;99.90
21115;DHT22;10715;48.546;9.896;2023-02-24T03:23:53;4.90;99.90
21115;DHT22;10715;48.546;9.896;2023-02-24T03:31:47;4.80;99.90
21115;DHT22;10715;48.546;9.896;2023-02-24T03:36:45;4.70;99.90
21115;DHT22;10715;48.546;9.896;2023-02-24T03:39:11;4.70;99.90
21115;DHT22;10715;48.546;9.896;2023-02-24T03:42:05;4.70;99.90
21115;DHT22;10715;48.546;9.896;2023-02-24T03:44:33;4.60;99.90
21115;DHT22;10715;48.546;9.896;2023-02-24T03:47:00;4.60;99.90
21115;DHT22;10715;48.546;9.896;2023-02-24T03:49:26;4.60;99.90
21115;DHT22;10715;48.546;9.896;2023-02-24T03:58:21;4.50;99.90
21115;DHT22;10715;48.546;9.896;2023-02-24T04:04:10;4.50;99.90
21115;DHT22;10715;48.546;9.896;2023-02-24T04:06:55;4.40;99.90
21115;DHT22;10715;48.546;9.896;2023-02-24T04:09:38;4.40;99.90
21115;DHT22;10715;48.546;9.896;2023-02-24T04:17:41;4.30;99.90
21115;DHT22;10715;48.546;9.896;2023-02-24T04:20:10;4.30;99.90
21115;DHT22;10715;48.546;9.896;2023-02-24T04:22:43;4.30;99.90
21115;DHT22;10715;48.546;9.896;2023-02-24T04:25:10;4.20;99.90
21115;DHT22;10715;48.546;9.896;2023-02-24T04:27:41;4.20;99.90
21115;DHT22;10715;48.546;9.896;2023-02-24T04:30:10;4.20;99.90
21115;DHT22;10715;48.546;9.896;2023-02-24T04:32:37;4.10;99.90
21115;DHT22;10715;48.546;9.896;2023-02-24T04:35:05;4.10;99.90
21115;DHT22;10715;48.546;9.896;2023-02-24T04:37:32;4.00;99.90
21115;DHT22;10715;48.546;9.896;2023-02-24T04:40:00;4.00;99.90
21115;DHT22;10715;48.546;9.896;2023-02-24T04:42:26;4.00;99.90
21115;DHT22;10715;48.546;9.896;2023-02-24T04:44:52;4.00;99.90
21115;DHT22;10715;48.546;9.896;2023-02-24T04:47:18;4.00;99.90
21115;DHT22;10715;48.546;9.896;2023-02-24T04:49:44;4.00;99.90
21115;DHT22;10715;48.546;9.896;2023-02-24T04:52:10;4.00;99.90
21115;DHT22;10715;48.546;9.896;2023-02-24T04:54:36;4.00;99.90
21115;DHT22;10715;48.546;9.896;2023-02-24T04:57:02;4.00;99.90
21115;DHT22;10715;48.546;9.896;2023-02-24T04:59:31;4.00;99.90
21115;DHT22;10715;48.546;9.896;2023-02-24T05:01:57;4.00;99.90
21115;DHT22;10715;48.546;9.896;2023-02-24T05:04:26;4.00;99.90
21115;DHT22;10715;48.546;9.896;2023-02-24T05:06:54;4.00;99.90
21115;DHT22;10715;48.546;9.896;2023-02-24T05:09:22;4.00;99.90
21115;DHT22;10715;48.546;9.896;2023-02-24T05:11:50;4.00;99.90
21115;DHT22;10715;48.546;9.896;2023-02-24T05:14:18;4.10;99.90
21115;DHT22;10715;48.546;9.896;2023-02-24T05:16:47;4.10;99.90
21115;DHT22;10715;48.546;9.896;2023-02-24T05:19:15;4.10;99.90
21115;DHT22;10715;48.546;9.896;2023-02-24T05:22:00;4.10;99.90
21115;DHT22;10715;48.546;9.896;2023-02-24T05:24:30;4.10;99.90
21115;DHT22;10715;48.546;9.896;2023-02-24T05:26:56;4.10;99.90
21115;DHT22;10715;48.546;9.896;2023-02-24T05:29:25;4.10;99.90
21115;DHT22;10715;48.546;9.896;2023-02-24T05:31:52;4.10;99.90
21115;DHT22;10715;48.546;9.896;2023-02-24T05:34:18;4.10;99.90
21115;DHT22;10715;48.546;9.896;2023-02-24T05:36:44;4.10;99.90
21115;DHT22;10715;48.546;9.896;2023-02-24T05:39:11;4.10;99.90
21115;DHT22;10715;48.546;9.896;2023-02-24T05:41:43;4.20;99.90
21115;DHT22;10715;48.546;9.896;2023-02-24T05:44:15;4.20;99.90
21115;DHT22;10715;48.546;9.896;2023-02-24T05:46:44;4.10;99.90
21115;DHT22;10715;48.546;9.896;2023-02-24T05:49:19;4.20;99.90
21115;DHT22;10715;48.546;9.896;2023-02-24T05:51:48;4.20;99.90
21115;DHT22;10715;48.546;9.896;2023-02-24T05:56:55;4.20;99.90
21115;DHT22;10715;48.546;9.896;2023-02-24T05:59:22;4.20;99.90
21115;DHT22;10715;48.546;9.896;2023-02-24T06:01:49;4.20;99.90
21115;DHT22;10715;48.546;9.896;2023-02-24T06:04:18;4.20;99.90
21115;DHT22;10715;48.546;9.896;2023-02-24T06:07:15;4.20;99.90
21115;DHT22;10715;48.546;9.896;2023-02-24T06:09:48;4.20;99.90
21115;DHT22;10715;48.546;9.896;2023-02-24T06:12:19;4.20;99.90
21115;DHT22;10715;48.546;9.896;2023-02-24T06:14:46;4.20;99.90
21115;DHT22;10715;48.546;9.896;2023-02-24T06:17:12;4.20;99.90
21115;DHT22;10715;48.546;9.896;2023-02-24T06:19:51;4.20;99.90
21115;DHT22;10715;48.546;9.896;2023-02-24T06:22:19;4.30;99.90
21115;DHT22;10715;48.546;9.896;2023-02-24T06:24:46;4.30;99.90
21115;DHT22;10715;48.546;9.896;2023-02-24T06:27:18;4.30;99.90
21115;DHT22;10715;48.546;9.896;2023-02-24T06:29:50;4.30;99.90
21115;DHT22;10715;48.546;9.896;2023-02-24T06:32:18;4.30;99.90
21115;DHT22;10715;48.546;9.896;2023-02-24T06:34:44;4.30;99.90
21115;DHT22;10715;48.546;9.896;2023-02-24T06:37:12;4.30;99.90
21115;DHT22;10715;48.546;9.896;2023-02-24T06:39:38;4.30;99.90
21115;DHT22;10715;48.546;9.896;2023-02-24T06:42:05;4.30;99.90
21115;DHT22;10715;48.546;9.896;2023-02-24T06:44:34;4.30;99.90
21115;DHT22;10715;48.546;9.896;2023-02-24T06:47:01;4.40;99.90
21115;DHT22;10715;48.546;9.896;2023-02-24T06:49:27;4.40;99.90
21115;DHT22;10715;48.546;9.896;2023-02-24T06:51:54;4.40;99.90
21115;DHT22;10715;48.546;9.896;2023-02-24T06:54:21;4.40;99.90
21115;DHT22;10715;48.546;9.896;2023-02-24T06:56:50;4.40;99.90
21115;DHT22;10715;48.546;9.896;2023-02-24T06:59:16;4.40;99.90
21115;DHT22;10715;48.546;9.896;2023-02-24T07:01:47;4.50;99.90
21115;DHT22;10715;48.546;9.896;2023-02-24T07:04:15;4.50;99.90
21115;DHT22;10715;48.546;9.896;2023-02-24T07:06:42;4.50;99.90
21115;DHT22;10715;48.546;9.896;2023-02-24T07:09:13;4.50;99.90
21115;DHT22;10715;48.546;9.896;2023-02-24T07:11:41;4.50;99.90
21115;DHT22;10715;48.546;9.896;2023-02-24T07:14:09;4.50;99.90
21115;DHT22;10715;48.546;9.896;2023-02-24T07:16:36;4.50;99.90
21115;DHT22;10715;48.546;9.896;2023-02-24T07:19:06;4.50;99.90
21115;DHT22;10715;48.546;9.896;2023-02-24T07:21:40;4.50;99.90
21115;DHT22;10715;48.546;9.896;2023-02-24T07:24:09;4.50;99.90
21115;DHT22;10715;48.546;9.896;2023-02-24T07:26:38;4.60;99.90
21115;DHT22;10715;48.546;9.896;2023-02-24T07:29:10;4.60;99.90
21115;DHT22;10715;48.546;9.896;2023-02-24T07:31:38;4.60;99.90
21115;DHT22;10715;48.546;9.896;2023-02-24T07:34:04;4.60;99.90
21115;DHT22;10715;48.546;9.896;2023-02-24T07:36:31;4.70;99.90
21115;DHT22;10715;48.546;9.896;2023-02-24T07:39:04;4.60;99.90
21115;DHT22;10715;48.546;9.896;2023-02-24T07:41:32;4.70;99.90
21115;DHT22;10715;48.546;9.896;2023-02-24T07:43:58;4.70;99.90
21115;DHT22;10715;48.546;9.896;2023-02-24T07:46:28;4.70;99.90
21115;DHT22;10715;48.546;9.896;2023-02-24T07:48:55;4.80;99.90
21115;DHT22;10715;48.546;9.896;2023-02-24T07:51:23;4.80;99.90
21115;DHT22;10715;48.546;9.896;2023-02-24T07:53:52;4.80;99.90
21115;DHT22;10715;48.546;9.896;2023-02-24T07:56:19;4.90;99.90
21115;DHT22;10715;48.546;9.896;2023-02-24T07:58:56;4.90;99.90
21115;DHT22;10715;48.546;9.896;2023-02-24T08:01:29;4.90;99.90
21115;DHT22;10715;48.546;9.896;2023-02-24T08:03:56;5.00;99.90
21115;DHT22;10715;48.546;9.896;2023-02-24T08:06:24;5.00;99.90
21115;DHT22;10715;48.546;9.896;2023-02-24T08:08:57;5.00;99.90
21115;DHT22;10715;48.546;9.896;2023-02-24T08:11:28;5.10;99.90
21115;DHT22;10715;48.546;9.896;2023-02-24T08:14:03;5.10;99.90
21115;DHT22;10715;48.546;9.896;2023-02-24T08:16:35;5.10;99.90
21115;DHT22;10715;48.546;9.896;2023-02-24T08:19:25;5.20;99.90
21115;DHT22;10715;48.546;9.896;2023-02-24T08:21:58;5.20;99.90
21115;DHT22;10715;48.546;9.896;2023-02-24T08:24:44;5.20;99.90
21115;DHT22;10715;48.546;9.896;2023-02-24T08:27:15;5.30;99.90
21115;DHT22;10715;48.546;9.896;2023-02-24T08:29:41;5.30;99.90
21115;DHT22;10715;48.546;9.896;2023-02-24T08:35:00;5.30;99.90
21115;DHT22;10715;48.546;9.896;2023-02-24T08:37:31;5.40;99.90
21115;DHT22;10715;48.546;9.896;2023-02-24T08:39:59;5.40;99.90
21115;DHT22;10715;48.546;9.896;2023-02-24T08:42:25;5.50;99.90
21115;DHT22;10715;48.546;9.896;2023-02-24T08:45:02;5.50;99.90
21115;DHT22;10715;48.546;9.896;2023-02-24T08:47:28;5.60;99.90
21115;DHT22;10715;48.546;9.896;2023-02-24T08:50:00;5.60;99.90
21115;DHT22;10715;48.546;9.896;2023-02-24T08:52:26;5.70;99.90
21115;DHT22;10715;48.546;9.896;2023-02-24T08:54:53;5.70;99.90
21115;DHT22;10715;48.546;9.896;2023-02-24T08:57:25;5.70;99.90
21115;DHT22;10715;48.546;9.896;2023-02-24T08:59:51;5.80;99.90
21115;DHT22;10715;48.546;9.896;2023-02-24T09:02:24;5.80;99.90
21115;DHT22;10715;48.546;9.896;2023-02-24T09:05:03;5.90;99.90
21115;DHT22;10715;48.546;9.896;2023-02-24T09:07:38;5.90;99.90
21115;DHT22;10715;48.546;9.896;2023-02-24T09:10:14;6.00;99.90
21115;DHT22;10715;48.546;9.896;2023-02-24T09:12:42;6.00;99.90
21115;DHT22;10715;48.546;9.896;2023-02-24T09:15:09;6.00;99.90
21115;DHT22;10715;48.546;9.896;2023-02-24T09:17:36;6.10;99.90
21115;DHT22;10715;48.546;9.896;2023-02-24T09:20:24;6.10;99.90
21115;DHT22;10715;48.546;9.896;2023-02-24T09:23:12;6.10;99.90
21115;DHT22;10715;48.546;9.896;2023-02-24T09:25:45;6.20;99.90
21115;DHT22;10715;48.546;9.896;2023-02-24T09:28:18;6.30;99.90
21115;DHT22;10715;48.546;9.896;2023-02-24T09:30:48;6.30;99.90
21115;DHT22;10715;48.546;9.896;2023-02-24T09:33:26;6.40;99.90
21115;DHT22;10715;48.546;9.896;2023-02-24T09:36:00;6.50;99.90
21115;DHT22;10715;48.546;9.896;2023-02-24T09:38:40;6.60;99.90
21115;DHT22;10715;48.546;9.896;2023-02-24T09:41:37;6.60;99.90
21115;DHT22;10715;48.546;9.896;2023-02-24T09:44:51;6.60;99.90
21115;DHT22;10715;48.546;9.896;2023-02-24T09:52:56;6.90;99.90
21115;DHT22;10715;48.546;9.896;2023-02-24T09:55:43;6.90;99.90
21115;DHT22;10715;48.546;9.896;2023-02-24T09:58:48;7.00;99.90
21115;DHT22;10715;48.546;9.896;2023-02-24T10:01:24;7.10;99.90
21115;DHT22;10715;48.546;9.896;2023-02-24T10:06:48;7.20;99.90
21115;DHT22;10715;48.546;9.896;2023-02-24T10:09:31;7.20;99.90
21115;DHT22;10715;48.546;9.896;2023-02-24T10:17:22;7.30;99.90
21115;DHT22;10715;48.546;9.896;2023-02-24T10:19:58;7.30;99.90
21115;DHT22;10715;48.546;9.896;2023-02-24T10:22:44;7.40;99.90
21115;DHT22;10715;48.546;9.896;2023-02-24T10:26:08;7.40;99.90
21115;DHT22;10715;48.546;9.896;2023-02-24T10:28:24;7.40;99.90
21115;DHT22;10715;48.546;9.896;2023-02-24T10:34:02;7.50;99.90
21115;DHT22;10715;48.546;9.896;2023-02-24T10:36:31;7.50;99.90
21115;DHT22;10715;48.546;9.896;2023-02-24T10:39:15;7.50;99.90
21115;DHT22;10715;48.546;9.896;2023-02-24T10:44:44;7.60;99.90
21115;DHT22;10715;48.546;9.896;2023-02-24T10:47:32;7.60;99.90
21115;DHT22;10715;48.546;9.896;2023-02-24T10:50:00;7.60;99.90
21115;DHT22;10715;48.546;9.896;2023-02-24T10:52:38;7.60;99.90
21115;DHT22;10715;48.546;9.896;2023-02-24T10:55:25;7.60;99.90
21115;DHT22;10715;48.546;9.896;2023-02-24T10:58:00;7.60;99.90
21115;DHT22;10715;48.546;9.896;2023-02-24T11:00:45;7.60;99.90
21115;DHT22;10715;48.546;9.896;2023-02-24T11:03:30;7.60;99.90
21115;DHT22;10715;48.546;9.896;2023-02-24T11:06:28;7.50;99.90
21115;DHT22;10715;48.546;9.896;2023-02-24T11:09:24;7.60;99.90
21115;DHT22;10715;48.546;9.896;2023-02-24T11:11:54;7.60;99.90
21115;DHT22;10715;48.546;9.896;2023-02-24T11:14:55;7.50;99.90
21115;DHT22;10715;48.546;9.896;2023-02-24T11:23:02;7.50;99.90
21115;DHT22;10715;48.546;9.896;2023-02-24T11:28:04;7.50;99.90
21115;DHT22;10715;48.546;9.896;2023-02-24T11:30:51;7.50;99.90
21115;DHT22;10715;48.546;9.896;2023-02-24T11:33:37;7.50;99.90
21115;DHT22;10715;48.546;9.896;2023-02-24T11:41:50;7.50;99.90
21115;DHT22;10715;48.546;9.896;2023-02-24T11:44:25;7.50;99.90
21115;DHT22;10715;48.546;9.896;2023-02-24T11:46:55;7.50;99.90
21115;DHT22;10715;48.546;9.896;2023-02-24T11:49:36;7.60;99.90
21115;DHT22;10715;48.546;9.896;2023-02-24T11:52:05;7.60;99.90
21115;DHT22;10715;48.546;9.896;2023-02-24T11:54:42;7.60;99.90
21115;DHT22;10715;48.546;9.896;2023-02-24T11:57:17;7.60;99.90
21115;DHT22;10715;48.546;9.896;2023-02-24T11:59:50;7.60;99.90
21115;DHT22;10715;48.546;9.896;2023-02-24T12:02:38;7.60;99.90
21115;DHT22;10715;48.546;9.896;2023-02-24T12:05:15;7.60;99.90
21115;DHT22;10715;48.546;9.896;2023-02-24T12:07:55;7.70;99.90
21115;DHT22;10715;48.546;9.896;2023-02-24T12:13:03;7.70;99.90
21115;DHT22;10715;48.546;9.896;2023-02-24T12:15:37;7.70;99.90
21115;DHT22;10715;48.546;9.896;2023-02-24T12:18:26;7.70;99.90
21115;DHT22;10715;48.546;9.896;2023-02-24T12:20:59;7.70;99.90
21115;DHT22;10715;48.546;9.896;2023-02-24T12:23:35;7.70;99.90
21115;DHT22;10715;48.546;9.896;2023-02-24T12:31:54;7.80;99.90
21115;DHT22;10715;48.546;9.896;2023-02-24T12:42:29;8.00;99.90
21115;DHT22;10715;48.546;9.896;2023-02-24T12:45:21;8.00;99.90
21115;DHT22;10715;48.546;9.896;2023-02-24T12:50:46;8.10;99.90
21115;DHT22;10715;48.546;9.896;2023-02-24T12:53:28;8.20;99.90
21115;DHT22;10715;48.546;9.896;2023-02-24T12:56:18;8.20;99.90
21115;DHT22;10715;48.546;9.896;2023-02-24T12:58:48;8.20;99.90
21115;DHT22;10715;48.546;9.896;2023-02-24T13:09:50;8.30;99.90
21115;DHT22;10715;48.546;9.896;2023-02-24T13:12:42;8.30;99.90
21115;DHT22;10715;48.546;9.896;2023-02-24T13:15:22;8.40;99.90
21115;DHT22;10715;48.546;9.896;2023-02-24T13:17:49;8.30;99.90
21115;DHT22;10715;48.546;9.896;2023-02-24T13:20:44;8.30;99.90
21115;DHT22;10715;48.546;9.896;2023-02-24T13:23:19;8.30;99.90
21115;DHT22;10715;48.546;9.896;2023-02-24T13:25:53;8.30;99.90
21115;DHT22;10715;48.546;9.896;2023-02-24T13:28:23;8.30;99.90
21115;DHT22;10715;48.546;9.896;2023-02-24T13:31:16;8.30;99.90
21115;DHT22;10715;48.546;9.896;2023-02-24T13:33:43;8.30;99.90
21115;DHT22;10715;48.546;9.896;2023-02-24T13:36:23;8.30;99.90
21115;DHT22;10715;48.546;9.896;2023-02-24T13:39:22;8.40;99.90
21115;DHT22;10715;48.546;9.896;2023-02-24T13:42:02;8.40;99.90
21115;DHT22;10715;48.546;9.896;2023-02-24T13:44:28;8.40;99.90
21115;DHT22;10715;48.546;9.896;2023-02-24T13:55:03;8.60;99.90
21115;DHT22;10715;48.546;9.896;2023-02-24T14:00:57;8.60;99.90
21115;DHT22;10715;48.546;9.896;2023-02-24T14:03:27;8.60;99.90
21115;DHT22;10715;48.546;9.896;2023-02-24T14:05:54;8.60;99.90
21115;DHT22;10715;48.546;9.896;2023-02-24T14:08:41;8.60;99.90
21115;DHT22;10715;48.546;9.896;2023-02-24T14:11:12;8.60;99.90
21115;DHT22;10715;48.546;9.896;2023-02-24T14:13:40;8.70;99.90
21115;DHT22;10715;48.546;9.896;2023-02-24T14:16:09;8.70;99.90
21115;DHT22;10715;48.546;9.896;2023-02-24T14:18:35;8.70;99.90
21115;DHT22;10715;48.546;9.896;2023-02-24T14:21:01;8.70;99.90
21115;DHT22;10715;48.546;9.896;2023-02-24T14:23:28;8.70;99.90
21115;DHT22;10715;48.546;9.896;2023-02-24T14:26:01;8.70;99.90
21115;DHT22;10715;48.546;9.896;2023-02-24T14:28:36;8.70;99.90
21115;DHT22;10715;48.546;9.896;2023-02-24T14:31:09;8.70;99.90
21115;DHT22;10715;48.546;9.896;2023-02-24T14:33:37;8.70;99.90
21115;DHT22;10715;48.546;9.896;2023-02-24T14:36:06;8.70;99.90
21115;DHT22;10715;48.546;9.896;2023-02-24T14:38:39;8.70;99.90
21115;DHT22;10715;48.546;9.896;2023-02-24T14:41:17;8.70;99.90
21115;DHT22;10715;48.546;9.896;2023-02-24T14:43:43;8.70;99.90
21115;DHT22;10715;48.546;9.896;2023-02-24T14:46:09;8.80;99.90
21115;DHT22;10715;48.546;9.896;2023-02-24T14:48:35;8.80;99.90
21115;DHT22;10715;48.546;9.896;2023-02-24T14:51:06;8.80;99.90
21115;DHT22;10715;48.546;9.896;2023-02-24T14:53:36;8.80;99.90
21115;DHT22;10715;48.546;9.896;2023-02-24T14:56:04;8.80;99.90
21115;DHT22;10715;48.546;9.896;2023-02-24T14:58:32;8.80;99.90
21115;DHT22;10715;48.546;9.896;2023-02-24T15:03:51;8.80;99.90
21115;DHT22;10715;48.546;9.896;2023-02-24T15:06:25;8.80;99.90
21115;DHT22;10715;48.546;9.896;2023-02-24T15:11:26;8.80;99.90
21115;DHT22;10715;48.546;9.896;2023-02-24T15:13:54;8.80;99.90
21115;DHT22;10715;48.546;9.896;2023-02-24T15:16:22;8.80;99.90
21115;DHT22;10715;48.546;9.896;2023-02-24T15:18:54;8.80;99.90
21115;DHT22;10715;48.546;9.896;2023-02-24T15:29:44;8.80;99.90
21115;DHT22;10715;48.546;9.896;2023-02-24T15:32:24;8.70;99.90
21115;DHT22;10715;48.546;9.896;2023-02-24T15:34:51;8.70;99.90
21115;DHT22;10715;48.546;9.896;2023-02-24T15:37:38;8.70;99.90
21115;DHT22;10715;48.546;9.896;2023-02-24T15:40:18;8.70;99.90
21115;DHT22;10715;48.546;9.896;2023-02-24T15:42:57;8.70;99.90
21115;DHT22;10715;48.546;9.896;2023-02-24T15:45:27;8.70;99.90
21115;DHT22;10715;48.546;9.896;2023-02-24T15:47:56;8.70;99.90
21115;DHT22;10715;48.546;9.896;2023-02-24T15:50:22;8.70;99.90
21115;DHT22;10715;48.546;9.896;2023-02-24T15:52:48;8.60;99.90
21115;DHT22;10715;48.546;9.896;2023-02-24T15:55:16;8.60;99.90
21115;DHT22;10715;48.546;9.896;2023-02-24T15:57:42;8.60;99.90
21115;DHT22;10715;48.546;9.896;2023-02-24T16:00:11;8.60;99.90
21115;DHT22;10715;48.546;9.896;2023-02-24T16:02:39;8.60;99.90
21115;DHT22;10715;48.546;9.896;2023-02-24T16:05:05;8.50;99.90
21115;DHT22;10715;48.546;9.896;2023-02-24T16:07:33;8.50;99.90
21115;DHT22;10715;48.546;9.896;2023-02-24T16:10:01;8.50;99.90
21115;DHT22;10715;48.546;9.896;2023-02-24T16:12:34;8.50;99.90
21115;DHT22;10715;48.546;9.896;2023-02-24T16:15:04;8.50;99.90
21115;DHT22;10715;48.546;9.896;2023-02-24T16:17:31;8.50;99.90
21115;DHT22;10715;48.546;9.896;2023-02-24T16:19:58;8.40;99.90
21115;DHT22;10715;48.546;9.896;2023-02-24T16:22:24;8.40;99.90
21115;DHT22;10715;48.546;9.896;2023-02-24T16:24:51;8.40;99.90
21115;DHT22;10715;48.546;9.896;2023-02-24T16:27:18;8.40;99.90
21115;DHT22;10715;48.546;9.896;2023-02-24T16:29:45;8.30;99.90
21115;DHT22;10715;48.546;9.896;2023-02-24T16:32:12;8.30;99.90
21115;DHT22;10715;48.546;9.896;2023-02-24T16:34:38;8.30;99.90
21115;DHT22;10715;48.546;9.896;2023-02-24T16:37:09;8.30;99.90
21115;DHT22;10715;48.546;9.896;2023-02-24T16:39:39;8.30;99.90
21115;DHT22;10715;48.546;9.896;2023-02-24T16:42:05;8.20;99.90
21115;DHT22;10715;48.546;9.896;2023-02-24T16:44:31;8.20;99.90
21115;DHT22;10715;48.546;9.896;2023-02-24T16:46:57;8.20;99.90
21115;DHT22;10715;48.546;9.896;2023-02-24T16:49:23;8.20;99.90
21115;DHT22;10715;48.546;9.896;2023-02-24T16:51:49;8.10;99.90
21115;DHT22;10715;48.546;9.896;2023-02-24T16:54:15;8.10;99.90
21115;DHT22;10715;48.546;9.896;2023-02-24T16:56:41;8.10;99.90
21115;DHT22;10715;48.546;9.896;2023-02-24T16:59:06;8.10;99.90
21115;DHT22;10715;48.546;9.896;2023-02-24T17:01:32;8.10;99.90
21115;DHT22;10715;48.546;9.896;2023-02-24T17:03:58;8.10;99.90
21115;DHT22;10715;48.546;9.896;2023-02-24T17:06:24;8.00;99.90
21115;DHT22;10715;48.546;9.896;2023-02-24T17:08:50;8.00;99.90
21115;DHT22;10715;48.546;9.896;2023-02-24T17:11:18;8.00;99.90
21115;DHT22;10715;48.546;9.896;2023-02-24T17:13:44;8.00;99.90
21115;DHT22;10715;48.546;9.896;2023-02-24T17:16:10;8.00;99.90
21115;DHT22;10715;48.546;9.896;2023-02-24T17:18:36;7.90;99.90
21115;DHT22;10715;48.546;9.896;2023-02-24T17:21:03;7.90;99.90
21115;DHT22;10715;48.546;9.896;2023-02-24T17:23:29;7.90;99.90
21115;DHT22;10715;48.546;9.896;2023-02-24T17:25:59;7.90;99.90
21115;DHT22;10715;48.546;9.896;2023-02-24T17:28:25;7.90;99.90
21115;DHT22;10715;48.546;9.896;2023-02-24T17:30:50;7.80;99.90
21115;DHT22;10715;48.546;9.896;2023-02-24T17:33:16;7.80;99.90
21115;DHT22;10715;48.546;9.896;2023-02-24T17:35:43;7.70;99.90
21115;DHT22;10715;48.546;9.896;2023-02-24T17:38:12;7.70;99.90
21115;DHT22;10715;48.546;9.896;2023-02-24T17:40:39;7.70;99.90
21115;DHT22;10715;48.546;9.896;2023-02-24T17:43:05;7.60;99.90
21115;DHT22;10715;48.546;9.896;2023-02-24T17:45:31;7.60;99.90
21115;DHT22;10715;48.546;9.896;2023-02-24T17:47:56;7.60;99.90
21115;DHT22;10715;48.546;9.896;2023-02-24T17:50:22;7.60;99.90
21115;DHT22;10715;48.546;9.896;2023-02-24T17:52:48;7.50;99.90
21115;DHT22;10715;48.546;9.896;2023-02-24T17:55:13;7.50;99.90
21115;DHT22;10715;48.546;9.896;2023-02-24T17:57:40;7.40;99.90
21115;DHT22;10715;48.546;9.896;2023-02-24T18:00:07;7.40;99.90
21115;DHT22;10715;48.546;9.896;2023-02-24T18:02:33;7.40;99.90
21115;DHT22;10715;48.546;9.896;2023-02-24T18:04:58;7.40;99.90
21115;DHT22;10715;48.546;9.896;2023-02-24T18:07:26;7.30;99.90
21115;DHT22;10715;48.546;9.896;2023-02-24T18:09:52;7.30;99.90
21115;DHT22;10715;48.546;9.896;2023-02-24T18:12:18;7.20;99.90
21115;DHT22;10715;48.546;9.896;2023-02-24T18:14:46;7.20;99.90
21115;DHT22;10715;48.546;9.896;2023-02-24T18:17:13;7.20;99.90
21115;DHT22;10715;48.546;9.896;2023-02-24T18:19:39;7.20;99.90
21115;DHT22;10715;48.546;9.896;2023-02-24T18:22:05;7.20;99.90
21115;DHT22;10715;48.546;9.896;2023-02-24T18:24:31;7.10;99.90
21115;DHT22;10715;48.546;9.896;2023-02-24T18:26:59;7.10;99.90
21115;DHT22;10715;48.546;9.896;2023-02-24T18:29:28;7.00;99.90
21115;DHT22;10715;48.546;9.896;2023-02-24T18:31:54;7.00;99.90